createdAt,value
2018-05-07T00:04:28.708Z,3.83
2018-05-07T00:09:31.381Z,3.90
2018-05-07T00:14:33.696Z,3.73
2018-05-07T00:19:36.246Z,3.23
2018-05-07T00:24:38.737Z,3.70
2018-05-07T00:29:41.173Z,4.17
2018-05-07T00:34:43.626Z,3.00
2018-05-07T00:39:46.112Z,3.40
2018-05-07T00:44:48.553Z,3.43
2018-05-07T00:49:51.096Z,3.37
2018-05-07T00:55:05.474Z,3.07
2018-05-07T01:00:07.909Z,3.17
2018-05-07T01:05:10.352Z,3.23
2018-05-07T01:10:13.675Z,3.30
2018-05-07T01:15:16.113Z,3.50
2018-05-07T01:20:18.554Z,3.40
2018-05-07T01:25:20.997Z,3.13
2018-05-07T01:30:23.438Z,3.07
2018-05-07T01:35:25.880Z,2.90
2018-05-07T01:40:28.420Z,3.07
2018-05-07T01:45:30.857Z,2.93
2018-05-07T01:50:33.321Z,3.10
2018-05-07T01:55:35.757Z,3.00
2018-05-07T02:00:38.208Z,3.07
2018-05-07T02:05:40.654Z,3.40
2018-05-07T02:10:43.857Z,3.97
2018-05-07T02:15:46.403Z,3.37
2018-05-07T02:20:48.884Z,3.00
2018-05-07T02:25:51.325Z,3.00
2018-05-07T02:30:53.768Z,3.50
2018-05-07T02:35:56.205Z,2.97
2018-05-07T02:40:58.657Z,2.50
2018-05-07T02:46:01.097Z,2.63
2018-05-07T02:51:03.537Z,3.23
2018-05-07T02:56:05.991Z,3.10
2018-05-07T03:01:09.184Z,2.50
2018-05-07T03:06:11.627Z,2.87
2018-05-07T03:11:14.066Z,3.03
2018-05-07T03:16:16.513Z,3.07
2018-05-07T03:21:18.958Z,3.40
2018-05-07T03:26:22.175Z,3.53
2018-05-07T03:31:24.604Z,2.90
2018-05-07T03:36:27.097Z,2.93
2018-05-07T03:41:29.542Z,2.43
2018-05-07T03:46:31.977Z,2.67
2018-05-07T03:51:34.425Z,2.97
2018-05-07T03:56:36.869Z,2.57
2018-05-07T04:01:39.309Z,2.47
2018-05-07T04:06:41.757Z,2.47
2018-05-07T04:11:44.197Z,2.47
2018-05-07T04:17:13.410Z,2.40
2018-05-07T04:22:27.569Z,2.30
2018-05-07T04:27:30.014Z,2.20
2018-05-07T04:32:33.218Z,2.10
2018-05-07T04:37:36.426Z,2.23
2018-05-07T04:42:39.666Z,2.40
2018-05-07T04:47:42.145Z,2.37
2018-05-07T04:52:44.586Z,1.83
2018-05-07T04:57:47.128Z,2.27
2018-05-07T05:02:49.570Z,2.27
2018-05-07T05:07:52.004Z,1.80
2018-05-07T05:12:54.449Z,2.23
2018-05-07T05:17:56.889Z,1.90
2018-05-07T05:23:00.088Z,2.50
2018-05-07T05:28:03.322Z,1.90
2018-05-07T05:33:05.814Z,2.13
2018-05-07T05:38:08.305Z,1.73
2018-05-07T05:43:10.799Z,2.33
2018-05-07T05:48:13.293Z,1.87
2018-05-07T05:53:15.788Z,2.83
2018-05-07T05:58:18.230Z,2.83
2018-05-07T06:03:20.675Z,2.23
2018-05-07T06:08:23.171Z,2.07
2018-05-07T06:13:25.604Z,2.07
2018-05-07T06:18:28.041Z,1.97
2018-05-07T06:23:30.541Z,2.07
2018-05-07T06:28:32.986Z,2.27
2018-05-07T06:33:35.525Z,2.00
2018-05-07T06:38:37.969Z,1.60
2018-05-07T06:43:40.411Z,1.80
2018-05-07T06:48:42.853Z,1.93
2018-05-07T06:53:45.297Z,1.87
2018-05-07T06:58:47.738Z,2.03
2018-05-07T07:03:50.175Z,2.70
2018-05-07T07:08:52.673Z,2.13
2018-05-07T07:13:55.113Z,2.30
2018-05-07T07:18:57.548Z,1.73
2018-05-07T07:23:59.992Z,2.00
2018-05-07T07:29:02.541Z,2.20
2018-05-07T07:34:05.108Z,2.00
2018-05-07T07:39:07.675Z,2.40
2018-05-07T07:44:10.103Z,2.10
2018-05-07T07:49:13.319Z,2.40
2018-05-07T07:54:16.522Z,2.27
2018-05-07T07:59:19.759Z,2.20
2018-05-07T08:04:22.248Z,2.10
2018-05-07T08:09:24.697Z,2.30
2018-05-07T08:14:27.896Z,2.00
2018-05-07T08:19:31.863Z,2.00
2018-05-07T08:24:35.070Z,1.97
2018-05-07T08:29:38.297Z,2.17
2018-05-07T08:34:40.733Z,2.23
2018-05-07T08:39:43.181Z,2.27
2018-05-07T08:44:45.673Z,1.90
2018-05-07T08:49:48.117Z,2.20
2018-05-07T08:54:50.652Z,1.80
2018-05-07T08:59:53.097Z,2.20
2018-05-07T09:04:55.537Z,1.80
2018-05-07T09:09:57.985Z,1.73
2018-05-07T09:15:00.429Z,1.97
2018-05-07T09:20:02.917Z,2.00
2018-05-07T09:25:05.409Z,1.90
2018-05-07T09:30:07.914Z,1.80
2018-05-07T09:35:10.358Z,2.37
2018-05-07T09:40:12.806Z,2.00
2018-05-07T09:45:15.268Z,1.93
2018-05-07T09:50:17.737Z,1.80
2018-05-07T09:55:20.175Z,1.57
2018-05-07T10:00:22.609Z,1.70
2018-05-07T10:05:25.053Z,1.90
2018-05-07T10:10:27.524Z,1.70
2018-05-07T10:15:29.937Z,1.53
2018-05-07T10:20:32.377Z,1.63
2018-05-07T10:25:35.589Z,1.83
2018-05-07T10:30:39.532Z,1.80
2018-05-07T10:35:41.973Z,1.90
2018-05-07T10:40:44.449Z,1.77
2018-05-07T10:45:46.895Z,2.07
2018-05-07T10:50:50.154Z,1.80
2018-05-07T10:55:52.601Z,2.37
2018-05-07T11:00:55.849Z,1.83
2018-05-07T11:05:58.293Z,1.60
2018-05-07T11:11:00.846Z,2.00
2018-05-07T11:16:03.280Z,1.80
2018-05-07T11:21:06.224Z,1.60
2018-05-07T11:26:09.549Z,1.87
2018-05-07T11:31:12.000Z,1.53
2018-05-07T11:36:14.436Z,1.77
2018-05-07T11:41:16.873Z,1.50
2018-05-07T11:46:19.322Z,1.80
2018-05-07T11:51:21.770Z,1.70
2018-05-07T11:56:25.721Z,1.60
2018-05-07T12:01:28.935Z,1.53
2018-05-07T12:06:32.137Z,1.60
2018-05-07T12:11:35.347Z,1.67
2018-05-07T12:16:38.561Z,1.50
2018-05-07T12:21:41.780Z,1.80
2018-05-07T12:26:44.224Z,1.50
2018-05-07T12:31:46.787Z,1.70
2018-05-07T12:36:49.872Z,1.87
2018-05-07T12:41:53.086Z,1.53
2018-05-07T12:46:55.520Z,1.60
2018-05-07T12:51:57.985Z,1.60
2018-05-07T12:57:00.424Z,1.53
2018-05-07T13:02:02.960Z,1.17
2018-05-07T13:07:05.457Z,1.50
2018-05-07T13:12:07.907Z,1.33
2018-05-07T13:17:10.579Z,1.50
2018-05-07T13:22:12.949Z,1.40
2018-05-07T13:27:15.384Z,1.63
2018-05-07T13:32:17.922Z,1.27
2018-05-07T13:37:20.357Z,1.20
2018-05-07T13:42:22.807Z,1.17
2018-05-07T13:47:26.838Z,1.23
2018-05-07T13:52:29.276Z,1.40
2018-05-07T13:57:31.717Z,1.30
2018-05-07T14:02:34.282Z,1.03
2018-05-07T14:07:36.713Z,1.40
2018-05-07T14:12:39.197Z,1.10
2018-05-07T14:17:41.647Z,1.20
2018-05-07T14:22:44.102Z,1.00
2018-05-07T14:27:46.551Z,0.90
2018-05-07T14:32:49.765Z,0.90
2018-05-07T14:37:52.965Z,1.13
2018-05-07T14:42:56.176Z,1.20
2018-05-07T14:47:59.380Z,1.00
2018-05-07T14:53:02.618Z,0.83
2018-05-07T14:58:05.121Z,1.20
2018-05-07T15:03:07.577Z,1.10
2018-05-07T15:08:11.526Z,0.90
2018-05-07T15:13:14.844Z,1.10
2018-05-07T15:18:18.242Z,1.10
2018-05-07T15:23:21.538Z,1.10
2018-05-07T15:28:23.921Z,0.73
2018-05-07T15:33:26.534Z,0.83
2018-05-07T15:38:28.982Z,0.90
2018-05-07T15:43:31.444Z,0.73
2018-05-07T15:48:34.638Z,1.37
2018-05-07T15:53:37.851Z,0.97
2018-05-07T15:58:41.058Z,1.27
2018-05-07T16:03:44.259Z,1.17
2018-05-07T16:08:46.801Z,0.97
2018-05-07T16:13:49.273Z,0.90
2018-05-07T16:18:51.769Z,0.97
2018-05-07T16:23:54.208Z,0.97
2018-05-07T16:28:56.662Z,1.10
2018-05-07T16:33:59.114Z,0.93
2018-05-07T16:39:01.553Z,1.13
2018-05-07T16:44:03.997Z,0.90
2018-05-07T16:49:06.594Z,1.00
2018-05-07T16:54:08.978Z,1.10
2018-05-07T16:59:11.425Z,1.70
2018-05-07T17:04:13.859Z,1.80
2018-05-07T17:09:16.300Z,2.10
2018-05-07T17:14:18.745Z,1.50
2018-05-07T17:19:21.189Z,1.93
2018-05-07T17:24:24.781Z,1.90
2018-05-07T17:29:27.989Z,1.73
2018-05-07T17:34:31.225Z,1.70
2018-05-07T17:39:33.665Z,1.77
2018-05-07T17:44:48.077Z,2.20
2018-05-07T17:49:50.525Z,2.00
2018-05-07T17:54:52.969Z,2.17
2018-05-07T17:59:55.495Z,2.30
2018-05-07T18:04:58.622Z,2.00
2018-05-07T18:10:01.214Z,2.00
2018-05-07T18:15:03.517Z,2.10
2018-05-07T18:20:05.957Z,1.83
2018-05-07T18:25:08.406Z,2.00
2018-05-07T18:30:11.076Z,1.90
2018-05-07T18:35:13.421Z,1.73
2018-05-07T18:40:15.809Z,1.80
2018-05-07T18:45:18.314Z,1.90
2018-05-07T18:50:20.785Z,2.00
2018-05-07T18:55:24.007Z,2.10
2018-05-07T19:00:26.502Z,1.90
2018-05-07T19:05:28.947Z,2.10
2018-05-07T19:10:32.157Z,1.87
2018-05-07T19:15:35.378Z,1.80
2018-05-07T19:20:37.817Z,2.00
2018-05-07T19:25:40.354Z,1.77
2018-05-07T19:30:43.510Z,1.93
2018-05-07T19:35:45.954Z,1.90
2018-05-07T19:40:49.922Z,2.00
2018-05-07T19:45:53.221Z,1.87
2018-05-07T19:50:56.452Z,2.30
2018-05-07T19:55:58.897Z,2.00
2018-05-07T20:01:02.178Z,2.40
2018-05-07T20:06:04.618Z,2.30
2018-05-07T20:11:07.829Z,2.10
2018-05-07T20:16:11.065Z,2.30
2018-05-07T20:21:13.511Z,2.20
2018-05-07T20:26:15.949Z,2.57
2018-05-07T20:31:18.454Z,2.97
2018-05-07T20:36:20.893Z,2.40
2018-05-07T20:41:24.871Z,2.40
2018-05-07T20:46:27.314Z,2.30
2018-05-07T20:51:30.570Z,2.80
2018-05-07T20:56:33.027Z,2.50
2018-05-07T21:01:36.312Z,2.20
2018-05-07T21:06:38.865Z,2.17
2018-05-07T21:11:41.308Z,2.50
2018-05-07T21:16:43.749Z,2.70
2018-05-07T21:21:46.229Z,2.60
2018-05-07T21:26:49.457Z,2.40
2018-05-07T21:31:51.893Z,2.50
2018-05-07T21:36:54.350Z,3.27
2018-05-07T21:41:56.833Z,2.10
2018-05-07T21:46:59.342Z,2.80
2018-05-07T21:52:01.822Z,2.60
2018-05-07T21:57:04.262Z,2.63
2018-05-07T22:02:06.772Z,2.50
2018-05-07T22:07:09.145Z,2.63
2018-05-07T22:12:11.638Z,2.80
2018-05-07T22:17:14.030Z,2.80
2018-05-07T22:22:16.580Z,3.77
2018-05-07T22:27:19.009Z,2.70
2018-05-07T22:32:21.557Z,2.70
2018-05-07T22:37:24.053Z,2.90
2018-05-07T22:42:26.545Z,2.70
2018-05-07T22:47:28.986Z,2.60
2018-05-07T22:52:31.430Z,2.30
2018-05-07T22:57:33.869Z,3.00
2018-05-07T23:02:36.346Z,2.87
2018-05-07T23:07:38.788Z,2.80
2018-05-07T23:12:42.006Z,3.00
2018-05-07T23:17:44.510Z,3.00
2018-05-07T23:22:46.982Z,2.73
2018-05-07T23:27:50.173Z,3.10
2018-05-07T23:32:52.625Z,3.03
2018-05-07T23:37:55.070Z,2.80
2018-05-07T23:42:58.306Z,2.53
2018-05-07T23:48:00.797Z,3.03
2018-05-07T23:53:03.241Z,2.60
2018-05-07T23:58:05.692Z,2.60
